New Richmond, Wisconsin
Current Conditions -  °F | °C
As of 10:15 PM on Wednesday 28 Jan 2015 (Local Time) from KRNH Reporting Station
Haze Haze  
Wind Chill: 29°   Ceiling: 300
Heat Index: 29°   Visibility: 1.2mi
Dew Point: 29°   Wind: 3mph
Humidity: 100%   Direction: 360°N
Pressure: 29.83"   Gusts: NA
Location:  45.12°N, 92.54°W
Report Text: KRNH 290415Z AUTO 36003KT 1 1/4SM BR OVC003 M01/M01 A2983 RMK AO2 T10151015
Loading
Personal Weather Stations






























Interactive Weather Map New forecast layout! Learn more

10-Day Weather Forecast

Advertisements
Track Severe Weather on mobile